sensor_id;sensor_type;location;lat;lon;timestamp;pressure;altitude;pressure_sealevel;temperature;humidity
10176;BME280;18221;38.704;0.152;2023-04-27T00:03:57;98924.31;;;20.25;55.21
10176;BME280;18221;38.704;0.152;2023-04-27T00:06:25;98922.22;;;20.34;55.16
10176;BME280;18221;38.704;0.152;2023-04-27T00:08:53;98930.34;;;20.47;54.75
10176;BME280;18221;38.704;0.152;2023-04-27T00:11:23;98926.59;;;20.35;54.83
10176;BME280;18221;38.704;0.152;2023-04-27T00:13:51;98925.31;;;20.31;55.01
10176;BME280;18221;38.704;0.152;2023-04-27T00:16:20;98921.00;;;20.43;54.50
10176;BME280;18221;38.704;0.152;2023-04-27T00:18:48;98929.28;;;20.35;54.82
10176;BME280;18221;38.704;0.152;2023-04-27T00:21:18;98923.91;;;20.42;54.42
10176;BME280;18221;38.704;0.152;2023-04-27T00:23:46;98920.78;;;20.25;54.88
10176;BME280;18221;38.704;0.152;2023-04-27T00:26:16;98920.50;;;20.20;54.83
10176;BME280;18221;38.704;0.152;2023-04-27T00:28:44;98919.06;;;20.17;54.98
10176;BME280;18221;38.704;0.152;2023-04-27T00:31:13;98917.44;;;20.29;54.48
10176;BME280;18221;38.704;0.152;2023-04-27T00:33:41;98910.84;;;20.39;54.33
10176;BME280;18221;38.704;0.152;2023-04-27T00:36:23;98914.13;;;20.34;54.13
10176;BME280;18221;38.704;0.152;2023-04-27T00:38:52;98915.63;;;20.43;54.03
10176;BME280;18221;38.704;0.152;2023-04-27T00:41:21;98912.91;;;20.37;54.16
10176;BME280;18221;38.704;0.152;2023-04-27T00:43:53;98913.84;;;20.16;54.80
10176;BME280;18221;38.704;0.152;2023-04-27T00:46:22;98916.13;;;20.12;54.87
10176;BME280;18221;38.704;0.152;2023-04-27T00:48:51;98911.44;;;20.27;54.57
10176;BME280;18221;38.704;0.152;2023-04-27T00:51:24;98921.13;;;20.22;54.71
10176;BME280;18221;38.704;0.152;2023-04-27T00:53:57;98914.91;;;20.15;54.94
10176;BME280;18221;38.704;0.152;2023-04-27T00:56:26;98909.38;;;20.29;54.56
10176;BME280;18221;38.704;0.152;2023-04-27T00:58:55;98912.69;;;20.31;54.60
10176;BME280;18221;38.704;0.152;2023-04-27T01:01:24;98905.53;;;20.04;55.24
10176;BME280;18221;38.704;0.152;2023-04-27T01:03:53;98902.41;;;20.01;55.42
10176;BME280;18221;38.704;0.152;2023-04-27T01:06:23;98902.88;;;20.17;55.35
10176;BME280;18221;38.704;0.152;2023-04-27T01:08:54;98907.88;;;20.20;55.13
10176;BME280;18221;38.704;0.152;2023-04-27T01:11:22;98896.50;;;20.25;55.08
10176;BME280;18221;38.704;0.152;2023-04-27T01:13:51;98901.50;;;20.28;54.89
10176;BME280;18221;38.704;0.152;2023-04-27T01:16:21;98900.31;;;20.03;55.60
10176;BME280;18221;38.704;0.152;2023-04-27T01:18:49;98902.84;;;20.11;55.38
10176;BME280;18221;38.704;0.152;2023-04-27T01:21:17;98896.84;;;20.15;55.11
10176;BME280;18221;38.704;0.152;2023-04-27T01:23:48;98898.13;;;20.26;55.26
10176;BME280;18221;38.704;0.152;2023-04-27T01:26:16;98884.81;;;20.18;55.24
10176;BME280;18221;38.704;0.152;2023-04-27T01:28:45;98893.16;;;20.23;55.01
10176;BME280;18221;38.704;0.152;2023-04-27T01:31:14;98892.13;;;20.24;54.89
10176;BME280;18221;38.704;0.152;2023-04-27T01:33:42;98888.41;;;20.31;54.65
10176;BME280;18221;38.704;0.152;2023-04-27T01:36:11;98884.66;;;20.26;54.82
10176;BME280;18221;38.704;0.152;2023-04-27T01:38:39;98886.94;;;20.29;54.67
10176;BME280;18221;38.704;0.152;2023-04-27T01:41:10;98886.72;;;20.24;54.68
10176;BME280;18221;38.704;0.152;2023-04-27T01:43:38;98889.66;;;20.29;54.78
10176;BME280;18221;38.704;0.152;2023-04-27T01:46:09;98880.88;;;20.14;54.91
10176;BME280;18221;38.704;0.152;2023-04-27T01:48:38;98886.31;;;20.20;54.35
10176;BME280;18221;38.704;0.152;2023-04-27T01:51:44;98882.63;;;20.28;53.87
10176;BME280;18221;38.704;0.152;2023-04-27T01:54:12;98885.94;;;20.30;53.78
10176;BME280;18221;38.704;0.152;2023-04-27T01:56:42;98888.25;;;20.46;53.16
10176;BME280;18221;38.704;0.152;2023-04-27T01:59:11;98897.19;;;20.66;52.06
10176;BME280;18221;38.704;0.152;2023-04-27T02:01:39;98896.75;;;20.56;51.78
10176;BME280;18221;38.704;0.152;2023-04-27T02:04:10;98885.34;;;20.41;52.23
10176;BME280;18221;38.704;0.152;2023-04-27T02:06:38;98881.38;;;20.50;52.29
10176;BME280;18221;38.704;0.152;2023-04-27T02:09:06;98886.38;;;20.60;52.02
10176;BME280;18221;38.704;0.152;2023-04-27T02:11:35;98884.72;;;20.59;52.15
10176;BME280;18221;38.704;0.152;2023-04-27T02:14:05;98891.78;;;20.53;52.13
10176;BME280;18221;38.704;0.152;2023-04-27T02:16:33;98892.34;;;20.29;52.93
10176;BME280;18221;38.704;0.152;2023-04-27T02:19:02;98890.69;;;20.28;53.41
10176;BME280;18221;38.704;0.152;2023-04-27T02:21:30;98892.56;;;20.27;53.56
10176;BME280;18221;38.704;0.152;2023-04-27T02:23:59;98896.78;;;19.96;54.62
10176;BME280;18221;38.704;0.152;2023-04-27T02:26:27;98891.47;;;20.22;54.36
10176;BME280;18221;38.704;0.152;2023-04-27T02:28:56;98891.25;;;20.17;54.47
10176;BME280;18221;38.704;0.152;2023-04-27T02:31:29;98892.91;;;20.11;54.70
10176;BME280;18221;38.704;0.152;2023-04-27T02:33:57;98897.88;;;20.21;54.58
10176;BME280;18221;38.704;0.152;2023-04-27T02:36:26;98882.56;;;20.15;54.54
10176;BME280;18221;38.704;0.152;2023-04-27T02:38:54;98889.25;;;20.25;54.37
10176;BME280;18221;38.704;0.152;2023-04-27T02:41:26;98878.47;;;20.25;54.28
10176;BME280;18221;38.704;0.152;2023-04-27T02:43:55;98877.25;;;20.41;53.91
10176;BME280;18221;38.704;0.152;2023-04-27T02:46:23;98874.75;;;20.46;53.76
10176;BME280;18221;38.704;0.152;2023-04-27T02:48:55;98872.38;;;20.17;54.33
10176;BME280;18221;38.704;0.152;2023-04-27T02:51:23;98890.44;;;20.23;54.39
10176;BME280;18221;38.704;0.152;2023-04-27T02:54:11;98880.50;;;20.23;54.27
10176;BME280;18221;38.704;0.152;2023-04-27T02:56:39;98872.63;;;20.28;54.46
10176;BME280;18221;38.704;0.152;2023-04-27T02:59:08;98873.88;;;20.26;54.35
10176;BME280;18221;38.704;0.152;2023-04-27T03:01:36;98867.81;;;20.11;54.88
10176;BME280;18221;38.704;0.152;2023-04-27T03:04:07;98881.50;;;20.16;54.38
10176;BME280;18221;38.704;0.152;2023-04-27T03:06:36;98879.59;;;20.03;54.85
10176;BME280;18221;38.704;0.152;2023-04-27T03:09:04;98877.53;;;19.99;54.92
10176;BME280;18221;38.704;0.152;2023-04-27T03:11:33;98878.75;;;20.03;54.79
10176;BME280;18221;38.704;0.152;2023-04-27T03:14:01;98871.34;;;20.18;54.22
10176;BME280;18221;38.704;0.152;2023-04-27T03:16:32;98878.59;;;20.11;54.17
10176;BME280;18221;38.704;0.152;2023-04-27T03:19:01;98863.91;;;20.26;53.80
10176;BME280;18221;38.704;0.152;2023-04-27T03:21:31;98864.56;;;20.35;53.76
10176;BME280;18221;38.704;0.152;2023-04-27T03:24:00;98866.00;;;20.24;53.80
10176;BME280;18221;38.704;0.152;2023-04-27T03:26:29;98863.91;;;20.20;53.75
10176;BME280;18221;38.704;0.152;2023-04-27T03:28:57;98871.72;;;20.08;54.09
10176;BME280;18221;38.704;0.152;2023-04-27T03:31:29;98868.22;;;20.21;53.68
10176;BME280;18221;38.704;0.152;2023-04-27T03:33:59;98877.31;;;20.00;54.34
10176;BME280;18221;38.704;0.152;2023-04-27T03:36:27;98859.53;;;20.12;54.14
10176;BME280;18221;38.704;0.152;2023-04-27T03:38:59;98867.13;;;19.96;54.84
10176;BME280;18221;38.704;0.152;2023-04-27T03:41:27;98854.31;;;20.11;54.47
10176;BME280;18221;38.704;0.152;2023-04-27T03:43:56;98861.56;;;20.04;54.66
10176;BME280;18221;38.704;0.152;2023-04-27T03:46:24;98857.84;;;20.05;54.29
10176;BME280;18221;38.704;0.152;2023-04-27T03:48:53;98859.47;;;19.93;54.74
10176;BME280;18221;38.704;0.152;2023-04-27T03:51:22;98862.34;;;19.85;55.30
10176;BME280;18221;38.704;0.152;2023-04-27T03:53:50;98860.88;;;19.82;55.28
10176;BME280;18221;38.704;0.152;2023-04-27T03:56:21;98863.22;;;19.92;55.13
10176;BME280;18221;38.704;0.152;2023-04-27T03:58:49;98871.03;;;19.87;55.30
10176;BME280;18221;38.704;0.152;2023-04-27T04:01:18;98868.78;;;19.84;55.47
10176;BME280;18221;38.704;0.152;2023-04-27T04:03:48;98860.91;;;19.89;55.35
10176;BME280;18221;38.704;0.152;2023-04-27T04:06:18;98866.75;;;20.05;54.94
10176;BME280;18221;38.704;0.152;2023-04-27T04:08:46;98863.00;;;20.00;54.55
10176;BME280;18221;38.704;0.152;2023-04-27T04:11:14;98860.53;;;20.05;54.61
10176;BME280;18221;38.704;0.152;2023-04-27T04:13:44;98856.97;;;19.98;54.42
10176;BME280;18221;38.704;0.152;2023-04-27T04:16:13;98861.19;;;20.20;53.85
10176;BME280;18221;38.704;0.152;2023-04-27T04:18:45;98857.91;;;20.31;53.14
10176;BME280;18221;38.704;0.152;2023-04-27T04:21:14;98860.13;;;20.08;53.36
10176;BME280;18221;38.704;0.152;2023-04-27T04:23:42;98861.03;;;20.35;52.60
10176;BME280;18221;38.704;0.152;2023-04-27T04:26:11;98857.44;;;20.14;53.40
10176;BME280;18221;38.704;0.152;2023-04-27T04:28:40;98853.88;;;20.01;53.88
10176;BME280;18221;38.704;0.152;2023-04-27T04:31:11;98854.91;;;19.93;54.61
10176;BME280;18221;38.704;0.152;2023-04-27T04:33:40;98861.97;;;19.94;54.36
10176;BME280;18221;38.704;0.152;2023-04-27T04:36:09;98853.91;;;20.14;54.10
10176;BME280;18221;38.704;0.152;2023-04-27T04:38:38;98864.66;;;20.01;54.65
10176;BME280;18221;38.704;0.152;2023-04-27T04:41:06;98871.16;;;20.19;54.10
10176;BME280;18221;38.704;0.152;2023-04-27T04:43:35;98863.84;;;20.00;54.42
10176;BME280;18221;38.704;0.152;2023-04-27T04:46:04;98868.81;;;19.97;54.93
10176;BME280;18221;38.704;0.152;2023-04-27T04:48:34;98869.63;;;19.91;55.38
10176;BME280;18221;38.704;0.152;2023-04-27T04:51:04;98875.84;;;19.98;55.02
10176;BME280;18221;38.704;0.152;2023-04-27T04:53:33;98875.00;;;19.97;54.93
10176;BME280;18221;38.704;0.152;2023-04-27T04:56:08;98879.81;;;20.02;54.93
10176;BME280;18221;38.704;0.152;2023-04-27T04:58:37;98877.09;;;19.95;54.99
10176;BME280;18221;38.704;0.152;2023-04-27T05:01:05;98882.88;;;19.92;55.25
10176;BME280;18221;38.704;0.152;2023-04-27T05:03:35;98873.34;;;19.90;55.37
10176;BME280;18221;38.704;0.152;2023-04-27T05:06:04;98887.41;;;19.79;55.76
10176;BME280;18221;38.704;0.152;2023-04-27T05:08:33;98887.03;;;19.88;55.46
10176;BME280;18221;38.704;0.152;2023-04-27T05:11:20;98893.03;;;19.90;55.45
10176;BME280;18221;38.704;0.152;2023-04-27T05:13:49;98889.09;;;19.93;55.16
10176;BME280;18221;38.704;0.152;2023-04-27T05:16:17;98894.34;;;20.07;54.68
10176;BME280;18221;38.704;0.152;2023-04-27T05:18:48;98893.53;;;20.13;54.70
10176;BME280;18221;38.704;0.152;2023-04-27T05:21:17;98892.97;;;20.24;54.33
10176;BME280;18221;38.704;0.152;2023-04-27T05:23:47;98897.28;;;20.12;54.63
10176;BME280;18221;38.704;0.152;2023-04-27T05:26:17;98891.66;;;20.14;54.73
10176;BME280;18221;38.704;0.152;2023-04-27T05:28:45;98893.34;;;20.15;54.56
10176;BME280;18221;38.704;0.152;2023-04-27T05:31:14;98900.38;;;20.09;54.58
10176;BME280;18221;38.704;0.152;2023-04-27T05:33:43;98898.50;;;20.10;54.87
10176;BME280;18221;38.704;0.152;2023-04-27T05:36:13;98905.13;;;20.14;54.87
10176;BME280;18221;38.704;0.152;2023-04-27T05:38:42;98901.63;;;20.20;54.59
10176;BME280;18221;38.704;0.152;2023-04-27T05:41:11;98902.47;;;20.20;54.42
10176;BME280;18221;38.704;0.152;2023-04-27T05:43:39;98900.44;;;20.29;54.21
10176;BME280;18221;38.704;0.152;2023-04-27T05:46:11;98902.50;;;20.27;54.16
10176;BME280;18221;38.704;0.152;2023-04-27T05:48:40;98906.69;;;20.36;53.89
10176;BME280;18221;38.704;0.152;2023-04-27T05:51:09;98904.63;;;20.51;53.53
10176;BME280;18221;38.704;0.152;2023-04-27T05:53:39;98902.97;;;20.63;53.07
10176;BME280;18221;38.704;0.152;2023-04-27T05:56:08;98908.78;;;20.73;52.70
10176;BME280;18221;38.704;0.152;2023-04-27T05:58:37;98920.84;;;20.77;52.52
10176;BME280;18221;38.704;0.152;2023-04-27T06:01:05;98919.81;;;20.72;52.08
10176;BME280;18221;38.704;0.152;2023-04-27T06:03:34;98922.50;;;20.72;52.16
10176;BME280;18221;38.704;0.152;2023-04-27T06:06:03;98922.91;;;20.88;51.93
10176;BME280;18221;38.704;0.152;2023-04-27T06:08:31;98921.06;;;20.96;51.65
10176;BME280;18221;38.704;0.152;2023-04-27T06:11:19;98923.34;;;21.05;51.41
10176;BME280;18221;38.704;0.152;2023-04-27T06:13:49;98924.59;;;21.03;51.22
10176;BME280;18221;38.704;0.152;2023-04-27T06:16:17;98934.59;;;21.09;51.21
10176;BME280;18221;38.704;0.152;2023-04-27T06:18:48;98934.56;;;21.15;51.00
10176;BME280;18221;38.704;0.152;2023-04-27T06:21:23;98928.53;;;21.20;51.13
10176;BME280;18221;38.704;0.152;2023-04-27T06:23:52;98925.66;;;21.21;50.89
10176;BME280;18221;38.704;0.152;2023-04-27T06:26:22;98923.78;;;21.22;50.79
10176;BME280;18221;38.704;0.152;2023-04-27T06:28:51;98931.66;;;21.30;50.78
10176;BME280;18221;38.704;0.152;2023-04-27T06:31:20;98928.31;;;21.41;50.45
10176;BME280;18221;38.704;0.152;2023-04-27T06:33:55;98935.78;;;21.52;50.50
10176;BME280;18221;38.704;0.152;2023-04-27T06:36:25;98930.38;;;21.59;50.41
10176;BME280;18221;38.704;0.152;2023-04-27T06:38:54;98932.00;;;21.66;50.28
10176;BME280;18221;38.704;0.152;2023-04-27T06:41:25;98922.19;;;21.78;50.15
10176;BME280;18221;38.704;0.152;2023-04-27T06:43:54;98924.03;;;21.84;49.84
10176;BME280;18221;38.704;0.152;2023-04-27T06:46:23;98928.59;;;21.90;49.72
10176;BME280;18221;38.704;0.152;2023-04-27T06:48:52;98927.56;;;21.91;49.34
10176;BME280;18221;38.704;0.152;2023-04-27T06:51:20;98928.56;;;22.03;49.34
10176;BME280;18221;38.704;0.152;2023-04-27T06:53:49;98932.50;;;22.07;49.04
10176;BME280;18221;38.704;0.152;2023-04-27T06:56:18;98926.84;;;22.16;49.18
10176;BME280;18221;38.704;0.152;2023-04-27T06:58:49;98927.22;;;22.19;49.19
10176;BME280;18221;38.704;0.152;2023-04-27T07:01:18;98927.41;;;22.31;49.08
10176;BME280;18221;38.704;0.152;2023-04-27T07:03:46;98916.75;;;22.36;49.03
10176;BME280;18221;38.704;0.152;2023-04-27T07:06:16;98922.34;;;22.41;48.48
10176;BME280;18221;38.704;0.152;2023-04-27T07:08:46;98918.50;;;22.55;48.30
10176;BME280;18221;38.704;0.152;2023-04-27T07:11:15;98921.16;;;22.61;48.19
10176;BME280;18221;38.704;0.152;2023-04-27T07:13:43;98917.56;;;22.74;47.81
10176;BME280;18221;38.704;0.152;2023-04-27T07:16:15;98932.66;;;22.88;47.67
10176;BME280;18221;38.704;0.152;2023-04-27T07:18:44;98940.13;;;22.93;47.49
10176;BME280;18221;38.704;0.152;2023-04-27T07:21:31;98937.38;;;22.99;47.04
10176;BME280;18221;38.704;0.152;2023-04-27T07:23:59;98941.63;;;23.13;47.37
10176;BME280;18221;38.704;0.152;2023-04-27T07:26:27;98949.84;;;23.25;46.94
10176;BME280;18221;38.704;0.152;2023-04-27T07:28:57;98945.59;;;23.35;46.94
10176;BME280;18221;38.704;0.152;2023-04-27T07:31:28;98934.19;;;23.52;46.74
10176;BME280;18221;38.704;0.152;2023-04-27T07:34:03;98942.03;;;23.78;46.29
10176;BME280;18221;38.704;0.152;2023-04-27T07:36:35;98937.13;;;24.23;45.58
10176;BME280;18221;38.704;0.152;2023-04-27T07:39:04;98947.25;;;24.75;44.73
10176;BME280;18221;38.704;0.152;2023-04-27T07:41:33;98947.03;;;25.53;43.24
10176;BME280;18221;38.704;0.152;2023-04-27T07:44:02;98940.88;;;26.44;41.26
10176;BME280;18221;38.704;0.152;2023-04-27T07:46:34;98945.09;;;27.13;38.88
10176;BME280;18221;38.704;0.152;2023-04-27T07:49:04;98947.00;;;27.62;37.87
10176;BME280;18221;38.704;0.152;2023-04-27T07:51:32;98946.34;;;27.55;36.68
10176;BME280;18221;38.704;0.152;2023-04-27T07:54:01;98943.13;;;27.58;36.69
10176;BME280;18221;38.704;0.152;2023-04-27T07:56:43;98951.81;;;27.55;36.52
10176;BME280;18221;38.704;0.152;2023-04-27T07:59:11;98957.84;;;27.24;36.87
10176;BME280;18221;38.704;0.152;2023-04-27T08:01:42;98955.41;;;26.94;37.51
10176;BME280;18221;38.704;0.152;2023-04-27T08:04:11;98953.00;;;26.53;38.06
10176;BME280;18221;38.704;0.152;2023-04-27T08:06:39;98953.09;;;26.29;38.72
10176;BME280;18221;38.704;0.152;2023-04-27T08:09:07;98955.28;;;25.93;39.14
10176;BME280;18221;38.704;0.152;2023-04-27T08:11:36;98951.06;;;25.62;40.00
10176;BME280;18221;38.704;0.152;2023-04-27T08:14:04;98947.78;;;25.48;40.29
10176;BME280;18221;38.704;0.152;2023-04-27T08:16:35;98954.97;;;25.31;40.54
10176;BME280;18221;38.704;0.152;2023-04-27T08:19:05;98950.44;;;25.25;40.90
10176;BME280;18221;38.704;0.152;2023-04-27T08:21:34;98954.19;;;25.01;42.74
10176;BME280;18221;38.704;0.152;2023-04-27T08:24:02;98948.75;;;24.89;42.92
10176;BME280;18221;38.704;0.152;2023-04-27T08:26:31;98942.66;;;25.05;42.68
10176;BME280;18221;38.704;0.152;2023-04-27T08:29:01;98946.91;;;25.13;42.48
10176;BME280;18221;38.704;0.152;2023-04-27T08:31:29;98945.56;;;25.04;42.49
10176;BME280;18221;38.704;0.152;2023-04-27T08:33:57;98943.44;;;25.06;42.05
10176;BME280;18221;38.704;0.152;2023-04-27T08:36:27;98950.09;;;25.10;42.63
10176;BME280;18221;38.704;0.152;2023-04-27T08:38:56;98947.72;;;25.25;41.96
10176;BME280;18221;38.704;0.152;2023-04-27T08:41:24;98945.72;;;25.32;41.88
10176;BME280;18221;38.704;0.152;2023-04-27T08:43:53;98946.56;;;25.44;41.36
10176;BME280;18221;38.704;0.152;2023-04-27T08:46:23;98943.75;;;25.51;40.74
10176;BME280;18221;38.704;0.152;2023-04-27T08:48:54;98947.13;;;25.35;40.84
10176;BME280;18221;38.704;0.152;2023-04-27T08:51:22;98950.34;;;25.43;41.32
10176;BME280;18221;38.704;0.152;2023-04-27T08:53:56;98945.25;;;25.35;41.02
10176;BME280;18221;38.704;0.152;2023-04-27T08:56:28;98948.34;;;25.39;41.18
10176;BME280;18221;38.704;0.152;2023-04-27T08:58:57;98946.34;;;25.46;41.04
10176;BME280;18221;38.704;0.152;2023-04-27T09:01:30;98953.63;;;25.45;41.13
10176;BME280;18221;38.704;0.152;2023-04-27T09:04:00;98961.72;;;25.52;40.92
10176;BME280;18221;38.704;0.152;2023-04-27T09:06:30;98967.75;;;25.54;40.58
10176;BME280;18221;38.704;0.152;2023-04-27T09:09:24;98972.44;;;25.24;41.64
10176;BME280;18221;38.704;0.152;2023-04-27T09:11:53;98970.06;;;25.27;41.75
10176;BME280;18221;38.704;0.152;2023-04-27T09:14:23;98977.28;;;25.33;41.60
10176;BME280;18221;38.704;0.152;2023-04-27T09:16:55;98973.97;;;25.31;41.75
10176;BME280;18221;38.704;0.152;2023-04-27T09:19:27;98972.06;;;25.20;41.65
10176;BME280;18221;38.704;0.152;2023-04-27T09:22:07;98972.78;;;25.27;41.65
10176;BME280;18221;38.704;0.152;2023-04-27T09:24:38;98974.91;;;25.25;41.96
10176;BME280;18221;38.704;0.152;2023-04-27T09:27:20;98973.97;;;25.43;41.66
10176;BME280;18221;38.704;0.152;2023-04-27T09:29:48;98973.75;;;25.21;41.52
10176;BME280;18221;38.704;0.152;2023-04-27T09:32:18;98978.69;;;25.24;41.78
10176;BME280;18221;38.704;0.152;2023-04-27T09:34:47;98975.13;;;25.12;41.82
10176;BME280;18221;38.704;0.152;2023-04-27T09:37:16;98962.13;;;25.02;42.06
10176;BME280;18221;38.704;0.152;2023-04-27T09:39:47;98973.47;;;25.11;41.96
10176;BME280;18221;38.704;0.152;2023-04-27T09:42:17;98964.22;;;25.00;42.00
10176;BME280;18221;38.704;0.152;2023-04-27T09:44:46;98964.13;;;25.07;42.20
10176;BME280;18221;38.704;0.152;2023-04-27T09:47:15;98970.94;;;24.86;42.30
10176;BME280;18221;38.704;0.152;2023-04-27T09:49:43;98965.38;;;24.93;42.50
10176;BME280;18221;38.704;0.152;2023-04-27T09:52:13;98971.28;;;24.90;42.14
10176;BME280;18221;38.704;0.152;2023-04-27T09:54:42;98966.34;;;24.87;42.20
10176;BME280;18221;38.704;0.152;2023-04-27T09:57:37;98957.13;;;24.88;42.52
10176;BME280;18221;38.704;0.152;2023-04-27T10:00:31;98955.94;;;24.95;42.48
10176;BME280;18221;38.704;0.152;2023-04-27T10:03:15;98961.66;;;25.05;42.14
10176;BME280;18221;38.704;0.152;2023-04-27T10:09:26;98968.53;;;25.20;41.99
10176;BME280;18221;38.704;0.152;2023-04-27T10:12:13;98965.19;;;25.06;42.28
10176;BME280;18221;38.704;0.152;2023-04-27T10:14:55;98966.59;;;25.08;42.29
10176;BME280;18221;38.704;0.152;2023-04-27T10:17:29;98969.19;;;25.03;42.70
10176;BME280;18221;38.704;0.152;2023-04-27T10:20:00;98966.97;;;25.12;42.43
10176;BME280;18221;38.704;0.152;2023-04-27T10:22:47;98967.22;;;25.22;42.19
10176;BME280;18221;38.704;0.152;2023-04-27T10:25:21;98973.34;;;25.06;42.30
10176;BME280;18221;38.704;0.152;2023-04-27T10:27:53;98971.03;;;25.21;41.97
10176;BME280;18221;38.704;0.152;2023-04-27T10:30:26;98969.22;;;25.15;42.75
10176;BME280;18221;38.704;0.152;2023-04-27T10:33:03;98962.28;;;25.31;42.25
10176;BME280;18221;38.704;0.152;2023-04-27T10:35:36;98971.84;;;25.33;42.10
10176;BME280;18221;38.704;0.152;2023-04-27T10:38:06;98966.41;;;25.33;41.43
10176;BME280;18221;38.704;0.152;2023-04-27T10:40:36;98977.28;;;25.33;41.82
10176;BME280;18221;38.704;0.152;2023-04-27T10:43:09;98967.13;;;25.40;41.81
10176;BME280;18221;38.704;0.152;2023-04-27T10:45:41;98968.66;;;25.36;41.71
10176;BME280;18221;38.704;0.152;2023-04-27T10:48:13;98962.66;;;25.46;41.47
10176;BME280;18221;38.704;0.152;2023-04-27T10:50:42;98960.31;;;25.49;41.86
10176;BME280;18221;38.704;0.152;2023-04-27T10:53:13;98958.25;;;25.45;41.14
10176;BME280;18221;38.704;0.152;2023-04-27T10:55:41;98954.34;;;25.41;41.81
10176;BME280;18221;38.704;0.152;2023-04-27T10:58:10;98956.63;;;25.55;41.56
10176;BME280;18221;38.704;0.152;2023-04-27T11:00:42;98949.19;;;25.62;41.41
10176;BME280;18221;38.704;0.152;2023-04-27T11:03:14;98949.16;;;25.74;40.75
10176;BME280;18221;38.704;0.152;2023-04-27T11:05:44;98938.28;;;25.74;41.04
10176;BME280;18221;38.704;0.152;2023-04-27T11:08:15;98939.22;;;25.80;40.76
10176;BME280;18221;38.704;0.152;2023-04-27T11:10:46;98935.78;;;25.84;40.77
10176;BME280;18221;38.704;0.152;2023-04-27T11:13:17;98936.97;;;25.76;40.51
10176;BME280;18221;38.704;0.152;2023-04-27T11:15:50;98934.97;;;25.84;40.50
10176;BME280;18221;38.704;0.152;2023-04-27T11:18:22;98926.81;;;25.84;40.78
10176;BME280;18221;38.704;0.152;2023-04-27T11:20:53;98930.00;;;25.69;41.20
10176;BME280;18221;38.704;0.152;2023-04-27T11:23:29;98923.31;;;25.60;41.54
10176;BME280;18221;38.704;0.152;2023-04-27T11:26:09;98921.50;;;25.65;41.12
10176;BME280;18221;38.704;0.152;2023-04-27T11:28:40;98918.13;;;25.47;41.64
10176;BME280;18221;38.704;0.152;2023-04-27T11:31:11;98920.19;;;25.45;41.74
10176;BME280;18221;38.704;0.152;2023-04-27T11:33:47;98915.72;;;25.39;41.60
10176;BME280;18221;38.704;0.152;2023-04-27T11:36:17;98908.50;;;25.33;41.69
10176;BME280;18221;38.704;0.152;2023-04-27T11:38:47;98909.19;;;25.40;41.90
10176;BME280;18221;38.704;0.152;2023-04-27T11:41:15;98907.56;;;25.62;41.52
10176;BME280;18221;38.704;0.152;2023-04-27T11:43:44;98905.91;;;25.72;41.87
10176;BME280;18221;38.704;0.152;2023-04-27T11:46:20;98903.06;;;25.56;41.60
10176;BME280;18221;38.704;0.152;2023-04-27T11:48:49;98902.59;;;25.59;41.09
10176;BME280;18221;38.704;0.152;2023-04-27T11:51:18;98895.84;;;25.73;41.19
10176;BME280;18221;38.704;0.152;2023-04-27T11:53:48;98890.41;;;25.73;40.97
10176;BME280;18221;38.704;0.152;2023-04-27T11:56:18;98887.66;;;25.85;40.65
10176;BME280;18221;38.704;0.152;2023-04-27T11:58:47;98885.19;;;25.83;40.62
10176;BME280;18221;38.704;0.152;2023-04-27T12:01:17;98884.28;;;25.94;40.20
10176;BME280;18221;38.704;0.152;2023-04-27T12:03:46;98888.16;;;26.10;40.35
10176;BME280;18221;38.704;0.152;2023-04-27T12:06:14;98876.59;;;26.03;40.19
10176;BME280;18221;38.704;0.152;2023-04-27T12:08:43;98882.34;;;26.18;39.57
10176;BME280;18221;38.704;0.152;2023-04-27T12:11:12;98877.56;;;25.97;40.29
10176;BME280;18221;38.704;0.152;2023-04-27T12:13:41;98873.19;;;25.96;40.39
10176;BME280;18221;38.704;0.152;2023-04-27T12:16:09;98878.84;;;26.06;39.93
10176;BME280;18221;38.704;0.152;2023-04-27T12:18:40;98875.81;;;25.91;40.37
10176;BME280;18221;38.704;0.152;2023-04-27T12:21:09;98878.72;;;26.01;40.40
10176;BME280;18221;38.704;0.152;2023-04-27T12:23:37;98873.75;;;26.09;40.21
10176;BME280;18221;38.704;0.152;2023-04-27T12:26:07;98874.84;;;25.97;40.16
10176;BME280;18221;38.704;0.152;2023-04-27T12:28:39;98872.19;;;26.13;40.05
10176;BME280;18221;38.704;0.152;2023-04-27T12:31:07;98866.75;;;26.13;40.03
10176;BME280;18221;38.704;0.152;2023-04-27T12:33:38;98864.97;;;26.19;39.51
10176;BME280;18221;38.704;0.152;2023-04-27T12:36:08;98859.78;;;26.17;39.47
10176;BME280;18221;38.704;0.152;2023-04-27T12:38:45;98856.25;;;26.33;38.95
10176;BME280;18221;38.704;0.152;2023-04-27T12:41:14;98854.59;;;26.32;38.79
10176;BME280;18221;38.704;0.152;2023-04-27T12:43:43;98857.53;;;26.14;39.32
10176;BME280;18221;38.704;0.152;2023-04-27T12:46:12;98860.16;;;25.98;39.76
10176;BME280;18221;38.704;0.152;2023-04-27T12:48:41;98857.94;;;26.23;39.59
10176;BME280;18221;38.704;0.152;2023-04-27T12:51:11;98858.31;;;26.26;39.38
10176;BME280;18221;38.704;0.152;2023-04-27T12:53:40;98856.69;;;26.42;39.41
10176;BME280;18221;38.704;0.152;2023-04-27T12:56:08;98852.72;;;26.50;39.45
10176;BME280;18221;38.704;0.152;2023-04-27T12:58:37;98847.72;;;26.58;39.76
10176;BME280;18221;38.704;0.152;2023-04-27T13:01:07;98845.13;;;26.35;38.78
10176;BME280;18221;38.704;0.152;2023-04-27T13:03:42;98842.25;;;26.42;39.07
10176;BME280;18221;38.704;0.152;2023-04-27T13:06:12;98846.31;;;26.56;38.72
10176;BME280;18221;38.704;0.152;2023-04-27T13:08:41;98846.31;;;26.72;37.64
10176;BME280;18221;38.704;0.152;2023-04-27T13:11:11;98855.66;;;26.76;37.40
10176;BME280;18221;38.704;0.152;2023-04-27T13:13:39;98846.19;;;26.95;36.57
10176;BME280;18221;38.704;0.152;2023-04-27T13:16:14;98846.50;;;26.99;36.47
10176;BME280;18221;38.704;0.152;2023-04-27T13:18:46;98849.16;;;26.94;35.80
10176;BME280;18221;38.704;0.152;2023-04-27T13:21:18;98842.88;;;26.77;35.94
10176;BME280;18221;38.704;0.152;2023-04-27T13:23:47;98846.59;;;26.87;34.79